createdAt,value
2019-02-10T00:00:07.588Z,93619.73
2019-02-10T00:00:35.005Z,93624.13
2019-02-10T00:01:05.145Z,93617.95
2019-02-10T00:01:29.585Z,93620.16
2019-02-10T00:01:52.485Z,93624.11
2019-02-10T00:02:15.305Z,93616.30
2019-02-10T00:02:38.125Z,93617.86
2019-02-10T00:03:01.085Z,93621.70
2019-02-10T00:03:23.828Z,93625.69
2019-02-10T00:03:46.543Z,93621.92
2019-02-10T00:04:09.385Z,93621.34
2019-02-10T00:04:32.366Z,93624.02
2019-02-10T00:04:55.445Z,93620.59
2019-02-10T00:05:18.247Z,93622.92
2019-02-10T00:05:41.064Z,93619.00
2019-02-10T00:06:03.885Z,93623.64
2019-02-10T00:06:26.665Z,93613.35
2019-02-10T00:06:49.504Z,93618.28
2019-02-10T00:07:12.346Z,93621.19
2019-02-10T00:07:35.404Z,93619.98
2019-02-10T00:07:58.185Z,93619.98
2019-02-10T00:08:20.985Z,93615.97
2019-02-10T00:08:46.246Z,93619.47
2019-02-10T00:09:09.145Z,93620.68
2019-02-10T00:09:32.027Z,93616.23
2019-02-10T00:09:54.944Z,93621.48
2019-02-10T00:10:20.611Z,93621.92
2019-02-10T00:10:43.485Z,93620.32
2019-02-10T00:11:06.747Z,93622.37
2019-02-10T00:11:29.506Z,93620.63
2019-02-10T00:11:52.305Z,93618.52
2019-02-10T00:12:15.143Z,93615.11
2019-02-10T00:12:37.985Z,93617.50
2019-02-10T00:13:00.885Z,93616.69
2019-02-10T00:13:23.685Z,93617.99
2019-02-10T00:13:46.627Z,93614.67
2019-02-10T00:14:09.468Z,93616.27
2019-02-10T00:14:32.405Z,93613.87
2019-02-10T00:14:55.145Z,93617.70
2019-02-10T00:15:18.209Z,93613.56
2019-02-10T00:15:40.985Z,93615.38
2019-02-10T00:16:03.767Z,93623.09
2019-02-10T00:16:26.605Z,93618.22
2019-02-10T00:16:49.386Z,93616.84
2019-02-10T00:17:12.144Z,93617.20
2019-02-10T00:17:35.023Z,93615.02
2019-02-10T00:17:58.125Z,93621.51
2019-02-10T00:18:20.864Z,93614.97
2019-02-10T00:18:43.686Z,93621.05
2019-02-10T00:19:06.545Z,93617.12
2019-02-10T00:19:29.464Z,93616.56
2019-02-10T00:19:52.221Z,93621.92
2019-02-10T00:20:15.585Z,93622.37
2019-02-10T00:20:38.465Z,93619.89
2019-02-10T00:21:01.365Z,93620.34
2019-02-10T00:21:24.223Z,93620.63
2019-02-10T00:21:47.106Z,93620.53
2019-02-10T00:22:09.823Z,93626.44
2019-02-10T00:22:32.625Z,93617.14
2019-02-10T00:22:55.744Z,93623.02
2019-02-10T00:23:18.843Z,93623.81
2019-02-10T00:23:41.685Z,93618.23
2019-02-10T00:24:04.628Z,93623.53
2019-02-10T00:24:27.645Z,93622.72
2019-02-10T00:24:50.405Z,93642.94
2019-02-10T00:25:13.245Z,93618.96
2019-02-10T00:25:36.032Z,93618.45
2019-02-10T00:25:58.905Z,93614.09
2019-02-10T00:26:21.845Z,93617.41
2019-02-10T00:26:44.585Z,93612.91
2019-02-10T00:27:07.504Z,93609.42
2019-02-10T00:27:30.345Z,93610.45
2019-02-10T00:27:53.812Z,93618.70
2019-02-10T00:28:16.606Z,93619.83
2019-02-10T00:28:39.486Z,93613.33
2019-02-10T00:29:02.255Z,93614.95
2019-02-10T00:29:25.504Z,93619.30
2019-02-10T00:29:48.384Z,93615.73
2019-02-10T00:30:11.264Z,93615.61
2019-02-10T00:30:33.925Z,93617.79
2019-02-10T00:30:57.065Z,93615.38
2019-02-10T00:31:19.884Z,93615.09
2019-02-10T00:31:42.743Z,93618.58
2019-02-10T00:32:05.725Z,93619.88
2019-02-10T00:32:28.904Z,93616.41
2019-02-10T00:32:51.825Z,93611.25
2019-02-10T00:33:14.623Z,93616.84
2019-02-10T00:33:37.425Z,93611.98
2019-02-10T00:34:00.325Z,93612.25
2019-02-10T00:34:23.145Z,93616.77
2019-02-10T00:34:46.044Z,93608.17
2019-02-10T00:35:08.925Z,93610.06
2019-02-10T00:35:31.845Z,93605.56
2019-02-10T00:35:54.707Z,93605.94
2019-02-10T00:36:17.504Z,93605.87
2019-02-10T00:36:40.383Z,93598.01
2019-02-10T00:37:03.051Z,93601.58
2019-02-10T00:37:26.045Z,93597.52
2019-02-10T00:37:49.125Z,93600.42
2019-02-10T00:38:11.925Z,93598.66
2019-02-10T00:38:34.764Z,93594.73
2019-02-10T00:38:57.845Z,93596.78
2019-02-10T00:39:20.747Z,93593.08
2019-02-10T00:39:43.565Z,93592.28
2019-02-10T00:40:06.465Z,93592.28
2019-02-10T00:40:29.206Z,93595.41
2019-02-10T00:40:52.306Z,93593.88
2019-02-10T00:41:15.065Z,93592.50
2019-02-10T00:41:37.905Z,93596.33
2019-02-10T00:42:00.744Z,93595.53
2019-02-10T00:42:23.624Z,93598.44
2019-02-10T00:42:46.445Z,93597.23
2019-02-10T00:43:09.325Z,93596.91
2019-02-10T00:43:32.125Z,93604.06
2019-02-10T00:43:55.064Z,93606.23
2019-02-10T00:44:22.387Z,93603.62
2019-02-10T00:44:45.225Z,93602.30
2019-02-10T00:45:08.085Z,93606.97
2019-02-10T00:45:30.865Z,93606.17
2019-02-10T00:45:53.605Z,93609.66
2019-02-10T00:46:16.527Z,93604.64
2019-02-10T00:46:39.365Z,93610.23
2019-02-10T00:47:02.200Z,93602.24
2019-02-10T00:47:25.104Z,93599.77
2019-02-10T00:47:47.825Z,93606.74
2019-02-10T00:48:10.644Z,93606.97
2019-02-10T00:48:33.585Z,93607.47
2019-02-10T00:48:56.305Z,93602.02
2019-02-10T00:49:19.024Z,93595.60
2019-02-10T00:49:41.926Z,93594.61
2019-02-10T00:50:05.024Z,93598.22
2019-02-10T00:50:27.885Z,93599.45
2019-02-10T00:50:50.666Z,93597.21
2019-02-10T00:51:13.345Z,93602.73
2019-02-10T00:51:36.196Z,93599.47
2019-02-10T00:51:59.024Z,93598.38
2019-02-10T00:52:21.865Z,93594.17
2019-02-10T00:52:44.726Z,93593.73
2019-02-10T00:53:07.425Z,93597.94
2019-02-10T00:53:30.224Z,93597.58
2019-02-10T00:53:53.067Z,93599.91
2019-02-10T00:54:15.906Z,93600.70
2019-02-10T00:54:38.643Z,93594.06
2019-02-10T00:55:02.333Z,93590.80
2019-02-10T00:55:25.245Z,93592.41
2019-02-10T00:55:48.863Z,93589.06
2019-02-10T00:56:11.977Z,93581.65
2019-02-10T00:56:35.244Z,93581.43
2019-02-10T00:56:58.045Z,93584.11
2019-02-10T00:57:20.784Z,93581.09
2019-02-10T00:57:43.604Z,93582.52
2019-02-10T00:58:06.805Z,93576.84
2019-02-10T00:58:29.625Z,93576.55
2019-02-10T00:58:52.565Z,93579.91
2019-02-10T00:59:17.584Z,93579.55
2019-02-10T00:59:40.383Z,93579.55
2019-02-10T01:00:03.082Z,93583.98
2019-02-10T01:00:25.984Z,93579.03
2019-02-10T01:00:48.824Z,93585.66
2019-02-10T01:01:11.664Z,93578.89
2019-02-10T01:01:34.486Z,93580.42
2019-02-10T01:01:57.265Z,93575.92
2019-02-10T01:02:20.086Z,93578.89
2019-02-10T01:02:43.565Z,93581.05
2019-02-10T01:03:06.344Z,93578.03
2019-02-10T01:03:29.126Z,93584.34
2019-02-10T01:03:51.925Z,93579.33
2019-02-10T01:04:14.964Z,93581.22
2019-02-10T01:04:37.726Z,93578.97
2019-02-10T01:05:00.548Z,93581.07
2019-02-10T01:05:23.384Z,93583.84
2019-02-10T01:05:46.291Z,93584.13
2019-02-10T01:06:09.185Z,93584.42
2019-02-10T01:06:32.005Z,93585.50
2019-02-10T01:06:55.205Z,93587.17
2019-02-10T01:07:18.085Z,93591.67
2019-02-10T01:07:41.105Z,93587.90
2019-02-10T01:08:03.945Z,93587.02
2019-02-10T01:08:28.584Z,93586.68
2019-02-10T01:08:51.505Z,93587.19
2019-02-10T01:09:14.287Z,93588.84
2019-02-10T01:09:37.203Z,93585.36
2019-02-10T01:10:00.269Z,93583.25
2019-02-10T01:10:24.824Z,93585.77
2019-02-10T01:10:47.627Z,93584.55
2019-02-10T01:11:10.505Z,93584.55
2019-02-10T01:11:33.405Z,93580.04
2019-02-10T01:11:56.265Z,93575.94
2019-02-10T01:12:19.164Z,93574.78
2019-02-10T01:12:42.005Z,93575.07
2019-02-10T01:13:04.845Z,93572.92
2019-02-10T01:13:27.584Z,93574.52
2019-02-10T01:13:50.465Z,93577.42
2019-02-10T01:14:13.443Z,93583.66
2019-02-10T01:14:36.305Z,93575.09
2019-02-10T01:14:59.116Z,93580.11
2019-02-10T01:15:22.484Z,93580.47
2019-02-10T01:15:45.287Z,93587.69
2019-02-10T01:16:08.086Z,93581.73
2019-02-10T01:16:30.978Z,93583.61
2019-02-10T01:16:57.525Z,93581.44
2019-02-10T01:17:20.928Z,93582.45
2019-02-10T01:17:43.903Z,93581.72
2019-02-10T01:18:06.713Z,93584.05
2019-02-10T01:18:29.507Z,93381.97
2019-02-10T01:18:55.247Z,93583.52
2019-02-10T01:19:18.611Z,93574.81
2019-02-10T01:19:46.304Z,93577.71
2019-02-10T01:20:11.404Z,93578.52
2019-02-10T01:20:43.264Z,93574.88
2019-02-10T01:21:07.624Z,93571.83
2019-02-10T01:21:32.244Z,93575.66
2019-02-10T01:21:55.804Z,93577.47
2019-02-10T01:22:18.584Z,93573.04
2019-02-10T01:22:46.326Z,93578.84
2019-02-10T01:23:08.864Z,93575.80
2019-02-10T01:23:31.670Z,93576.67
2019-02-10T01:23:54.625Z,93582.48
2019-02-10T01:24:18.045Z,93574.48
2019-02-10T01:24:42.943Z,93576.89
2019-02-10T01:25:08.945Z,93576.05
2019-02-10T01:25:33.505Z,93576.98
2019-02-10T01:25:56.306Z,93594.86
2019-02-10T01:26:19.206Z,93574.39
2019-02-10T01:26:42.024Z,93572.50
2019-02-10T01:27:05.169Z,93575.62
2019-02-10T01:27:27.984Z,93568.72
2019-02-10T01:27:52.543Z,93565.09
2019-02-10T01:28:15.466Z,93565.94
2019-02-10T01:28:38.225Z,93567.34
2019-02-10T01:29:01.405Z,93563.56
2019-02-10T01:29:24.564Z,93566.82
2019-02-10T01:29:48.864Z,93564.64
2019-02-10T01:30:11.644Z,93564.87
2019-02-10T01:30:37.649Z,93563.19
2019-02-10T01:31:00.544Z,93564.50
2019-02-10T01:31:23.284Z,93557.68
2019-02-10T01:31:46.085Z,93558.39
2019-02-10T01:32:08.884Z,93559.55
2019-02-10T01:32:31.903Z,93561.88
2019-02-10T01:32:54.885Z,93558.63
2019-02-10T01:33:17.864Z,93558.63
2019-02-10T01:33:40.714Z,93560.01
2019-02-10T01:34:03.504Z,93557.10
2019-02-10T01:34:26.244Z,93558.41
2019-02-10T01:34:49.064Z,93558.75
2019-02-10T01:35:12.085Z,93555.06
2019-02-10T01:35:34.964Z,93559.48
2019-02-10T01:35:57.845Z,93560.36
2019-02-10T01:36:22.204Z,93560.36
2019-02-10T01:36:49.705Z,93560.13
2019-02-10T01:37:09.324Z,93557.23
2019-02-10T01:37:32.644Z,93563.55
2019-02-10T01:37:55.508Z,93559.98
2019-02-10T01:38:19.313Z,93556.94
2019-02-10T01:38:42.048Z,93556.08
2019-02-10T01:39:06.424Z,93557.59
2019-02-10T01:39:29.725Z,93558.63
2019-02-10T01:39:54.213Z,93560.01
2019-02-10T01:40:16.985Z,93565.53
2019-02-10T01:40:39.866Z,93559.34
2019-02-10T01:41:02.635Z,93563.72
2019-02-10T01:41:25.867Z,93561.45
2019-02-10T01:41:48.685Z,93556.08
2019-02-10T01:42:11.702Z,93553.31
2019-02-10T01:42:34.604Z,93558.39
2019-02-10T01:42:57.432Z,93554.03
2019-02-10T01:43:20.264Z,93554.89
2019-02-10T01:43:43.025Z,93556.20
2019-02-10T01:44:05.847Z,93553.45
2019-02-10T01:44:28.603Z,93555.18
2019-02-10T01:44:51.605Z,93555.91
2019-02-10T01:45:14.428Z,93559.04
2019-02-10T01:45:37.247Z,93551.19
2019-02-10T01:46:00.244Z,93555.18
2019-02-10T01:46:23.525Z,93557.51
2019-02-10T01:46:46.264Z,93556.36
2019-02-10T01:47:09.104Z,93559.46
2019-02-10T01:47:31.945Z,93555.18
2019-02-10T01:47:54.805Z,93555.18
2019-02-10T01:48:17.502Z,93552.56
2019-02-10T01:48:40.432Z,93556.20
2019-02-10T01:49:03.164Z,93564.34
2019-02-10T01:49:25.983Z,93552.98
2019-02-10T01:49:48.785Z,93557.19
2019-02-10T01:50:11.604Z,93555.98
2019-02-10T01:50:34.475Z,93556.62
2019-02-10T01:50:57.222Z,93551.48
2019-02-10T01:51:20.204Z,93550.65
2019-02-10T01:51:43.104Z,93557.51
2019-02-10T01:52:05.945Z,93551.95
2019-02-10T01:52:30.564Z,93554.58
2019-02-10T01:52:53.343Z,93547.39
2019-02-10T01:53:16.132Z,93545.80
2019-02-10T01:53:38.925Z,93550.45
2019-02-10T01:54:03.714Z,93549.66
2019-02-10T01:54:27.423Z,93549.08
2019-02-10T01:54:50.645Z,93556.36
2019-02-10T01:55:13.425Z,93542.25
2019-02-10T01:55:36.348Z,93548.00
2019-02-10T01:55:59.143Z,93546.30
2019-02-10T01:56:22.265Z,93551.70
2019-02-10T01:56:45.246Z,93548.64
2019-02-10T01:57:07.964Z,93547.70
2019-02-10T01:57:30.805Z,93542.09
2019-02-10T01:57:53.684Z,93546.30
2019-02-10T01:58:16.543Z,93547.14
2019-02-10T01:58:39.423Z,93537.66
2019-02-10T01:59:02.083Z,93542.83
2019-02-10T01:59:25.359Z,93544.70
2019-02-10T01:59:48.204Z,93536.34
2019-02-10T02:00:11.066Z,93546.02
2019-02-10T02:00:33.964Z,93535.58
2019-02-10T02:00:56.706Z,93541.90
2019-02-10T02:01:19.804Z,93544.00
2019-02-10T02:01:42.584Z,93546.17
2019-02-10T02:02:05.312Z,93542.54
2019-02-10T02:02:28.586Z,93538.83
2019-02-10T02:02:51.345Z,93540.66
2019-02-10T02:03:14.103Z,93536.16
2019-02-10T02:03:38.964Z,93538.13
2019-02-10T02:04:01.724Z,93534.27
2019-02-10T02:04:24.425Z,93538.63
2019-02-10T02:04:47.252Z,93539.95
2019-02-10T02:05:12.067Z,93539.79
2019-02-10T02:05:34.844Z,93537.75
2019-02-10T02:05:57.643Z,93534.24
2019-02-10T02:06:20.464Z,93533.66
2019-02-10T02:06:43.444Z,93534.05
2019-02-10T02:07:06.166Z,93533.53
2019-02-10T02:07:29.065Z,93531.84
2019-02-10T02:07:52.824Z,93530.19
2019-02-10T02:08:15.644Z,93526.84
2019-02-10T02:08:43.085Z,93528.88
2019-02-10T02:09:10.043Z,93531.94
2019-02-10T02:09:34.184Z,93528.88
2019-02-10T02:09:59.413Z,93527.06
2019-02-10T02:10:22.905Z,93534.55
2019-02-10T02:10:49.983Z,93532.96
2019-02-10T02:11:14.565Z,93525.69
2019-02-10T02:11:38.985Z,93530.19
2019-02-10T02:12:01.877Z,93525.33
2019-02-10T02:12:25.284Z,93524.83
2019-02-10T02:12:56.543Z,93525.17
2019-02-10T02:13:25.723Z,93528.75
2019-02-10T02:14:00.645Z,93529.03
2019-02-10T02:14:31.124Z,93525.55
2019-02-10T02:14:55.805Z,93526.58
2019-02-10T02:15:22.144Z,93530.05
2019-02-10T02:15:46.024Z,93523.22
2019-02-10T02:16:08.824Z,93522.36
2019-02-10T02:16:31.626Z,93522.07
2019-02-10T02:16:54.404Z,93518.73
2019-02-10T02:17:19.005Z,93517.70
2019-02-10T02:17:41.964Z,93512.47
2019-02-10T02:18:04.906Z,93516.97
2019-02-10T02:18:27.805Z,93512.09
2019-02-10T02:18:50.905Z,93516.69
2019-02-10T02:19:13.802Z,93516.69
2019-02-10T02:19:36.544Z,93508.67
2019-02-10T02:20:00.690Z,93512.47
2019-02-10T02:20:23.508Z,93511.16
2019-02-10T02:20:46.327Z,93504.40
2019-02-10T02:21:10.454Z,93506.22
2019-02-10T02:21:33.847Z,93510.14
2019-02-10T02:21:56.625Z,93510.27
2019-02-10T02:22:20.885Z,93509.13
2019-02-10T02:22:48.105Z,93510.50
2019-02-10T02:23:12.244Z,93510.78
2019-02-10T02:23:35.424Z,93512.60
2019-02-10T02:24:00.045Z,93509.70
2019-02-10T02:24:22.864Z,93511.30
2019-02-10T02:24:45.623Z,93513.40
2019-02-10T02:25:08.724Z,93513.11
2019-02-10T02:25:31.545Z,93512.25
2019-02-10T02:25:54.368Z,93507.14
2019-02-10T02:26:17.206Z,93509.92
2019-02-10T02:26:40.009Z,93510.56
2019-02-10T02:27:02.715Z,93510.14
2019-02-10T02:27:25.528Z,93507.08
2019-02-10T02:27:49.424Z,93508.61
2019-02-10T02:28:12.265Z,93509.13
2019-02-10T02:28:36.625Z,93511.52
2019-02-10T02:29:00.069Z,93510.43
2019-02-10T02:29:22.964Z,93510.84
2019-02-10T02:29:45.744Z,93509.41
2019-02-10T02:30:08.484Z,93513.17
2019-02-10T02:30:31.466Z,93511.13
2019-02-10T02:30:54.247Z,93509.53
2019-02-10T02:31:17.025Z,93508.58
2019-02-10T02:31:39.915Z,93508.96
2019-02-10T02:32:03.256Z,93509.25
2019-02-10T02:32:26.027Z,93508.23
2019-02-10T02:32:49.323Z,93509.25
2019-02-10T02:33:12.104Z,93514.48
2019-02-10T02:33:34.903Z,93511.70
2019-02-10T02:33:57.746Z,93513.45
2019-02-10T02:34:20.644Z,93511.48
2019-02-10T02:34:43.423Z,93508.19
2019-02-10T02:35:06.164Z,93508.28
2019-02-10T02:35:30.285Z,93506.41
2019-02-10T02:35:53.066Z,93506.75
2019-02-10T02:36:16.046Z,93507.45
2019-02-10T02:36:41.791Z,93504.26
2019-02-10T02:37:09.045Z,93502.59
2019-02-10T02:37:31.984Z,93504.38
2019-02-10T02:37:55.184Z,93509.83
2019-02-10T02:38:18.023Z,93501.41
2019-02-10T02:38:42.707Z,93505.34
2019-02-10T02:39:06.964Z,93503.39
2019-02-10T02:39:34.764Z,93502.22
2019-02-10T02:40:02.086Z,93502.09
2019-02-10T02:40:24.641Z,93498.67
2019-02-10T02:40:47.465Z,93501.12
2019-02-10T02:41:11.103Z,93500.33
2019-02-10T02:41:38.870Z,93493.66
2019-02-10T02:41:58.624Z,93500.77
2019-02-10T02:42:21.424Z,93501.80
2019-02-10T02:42:45.637Z,93498.00
2019-02-10T02:43:09.504Z,93498.50
2019-02-10T02:43:32.284Z,93500.11
2019-02-10T02:43:55.124Z,93496.12
2019-02-10T02:44:28.244Z,93498.97
2019-02-10T02:45:20.063Z,93495.38
2019-02-10T02:46:04.305Z,93495.54
2019-02-10T02:46:27.113Z,93499.41
2019-02-10T02:46:50.038Z,93496.05
2019-02-10T02:47:13.109Z,93496.27
2019-02-10T02:47:35.829Z,93496.05
2019-02-10T02:47:59.185Z,93494.80
2019-02-10T02:48:22.444Z,93495.54
2019-02-10T02:48:45.264Z,93492.92
2019-02-10T02:49:08.079Z,93491.04
2019-02-10T02:49:30.944Z,93489.95
2019-02-10T02:49:53.666Z,93493.88
2019-02-10T02:50:16.504Z,93486.72
2019-02-10T02:50:39.333Z,93493.38
2019-02-10T02:51:02.263Z,93483.59
2019-02-10T02:51:25.105Z,93484.90
2019-02-10T02:51:47.984Z,93487.52
2019-02-10T02:52:10.877Z,93484.00
2019-02-10T02:52:34.346Z,93482.97
2019-02-10T02:52:57.124Z,93482.83
2019-02-10T02:53:19.981Z,93479.88
2019-02-10T02:53:42.838Z,93477.42
2019-02-10T02:54:05.584Z,93482.32
2019-02-10T02:54:28.394Z,93478.86
2019-02-10T02:54:51.276Z,93480.85
2019-02-10T02:55:14.165Z,93480.91
2019-02-10T02:55:37.045Z,93480.23
2019-02-10T02:55:59.904Z,93476.37
2019-02-10T02:56:22.725Z,93477.16
2019-02-10T02:56:45.727Z,93475.05
2019-02-10T02:57:08.591Z,93474.37
2019-02-10T02:57:38.984Z,93474.16
2019-02-10T02:58:02.285Z,93471.58
2019-02-10T02:58:25.084Z,93474.94
2019-02-10T02:58:51.224Z,93470.16
2019-02-10T02:59:15.768Z,93474.66
2019-02-10T02:59:44.367Z,93469.20
2019-02-10T03:00:10.134Z,93472.48
2019-02-10T03:00:39.425Z,93473.47
2019-02-10T03:01:07.187Z,93471.14
2019-02-10T03:01:29.705Z,93476.08
2019-02-10T03:01:52.528Z,93472.50
2019-02-10T03:02:15.515Z,93473.87
2019-02-10T03:03:07.937Z,93469.48
2019-02-10T03:03:31.442Z,93478.46
2019-02-10T03:04:02.233Z,93473.22
2019-02-10T03:04:29.425Z,93469.36
2019-02-10T03:04:52.925Z,93476.92
2019-02-10T03:05:19.043Z,93471.12
2019-02-10T03:05:45.948Z,93472.94
2019-02-10T03:06:19.407Z,93475.84
2019-02-10T03:06:47.944Z,93468.28
2019-02-10T03:07:17.807Z,93472.30
2019-02-10T03:07:35.245Z,93469.28
2019-02-10T03:07:58.025Z,93470.31
2019-02-10T03:08:20.845Z,93473.50
2019-02-10T03:08:43.708Z,93469.59
2019-02-10T03:09:06.642Z,93470.31
2019-02-10T03:09:29.488Z,93469.97
2019-02-10T03:09:52.253Z,93474.19
2019-02-10T03:10:15.347Z,93470.31
2019-02-10T03:10:38.145Z,93473.50
2019-02-10T03:11:00.914Z,93472.48
2019-02-10T03:11:23.775Z,93476.89
2019-02-10T03:11:46.604Z,93475.64
2019-02-10T03:12:09.361Z,93469.37
2019-02-10T03:12:32.155Z,93467.89
2019-02-10T03:12:54.929Z,93475.58
2019-02-10T03:13:17.903Z,93468.01
2019-02-10T03:13:40.765Z,93477.52
2019-02-10T03:14:05.007Z,93477.75
2019-02-10T03:14:27.768Z,93475.19
2019-02-10T03:14:50.505Z,93479.42
2019-02-10T03:15:13.249Z,93473.76
2019-02-10T03:15:36.338Z,93474.05
2019-02-10T03:15:59.148Z,93475.87
2019-02-10T03:16:21.968Z,93471.71
2019-02-10T03:16:44.968Z,93475.81
2019-02-10T03:17:07.696Z,93471.71
2019-02-10T03:17:30.570Z,93469.66
2019-02-10T03:17:53.416Z,93469.32
2019-02-10T03:18:16.149Z,93468.83
2019-02-10T03:18:39.149Z,93467.98
2019-02-10T03:19:01.928Z,93470.84
2019-02-10T03:19:24.808Z,93461.89
2019-02-10T03:19:47.646Z,93462.40
2019-02-10T03:20:10.353Z,93461.68
2019-02-10T03:20:33.108Z,93470.99
2019-02-10T03:20:55.888Z,93459.55
2019-02-10T03:21:18.687Z,93462.73
2019-02-10T03:21:41.605Z,93459.20
2019-02-10T03:22:04.323Z,93460.52
2019-02-10T03:22:27.302Z,93465.95
2019-02-10T03:22:50.150Z,93461.31
2019-02-10T03:23:13.047Z,93469.37
2019-02-10T03:23:35.816Z,93465.11
2019-02-10T03:23:58.575Z,93461.69
2019-02-10T03:24:21.854Z,93461.31
2019-02-10T03:24:45.030Z,93458.27
2019-02-10T03:25:10.735Z,93458.33
2019-02-10T03:25:33.544Z,93456.36
2019-02-10T03:25:56.369Z,93455.25
2019-02-10T03:26:19.266Z,93453.77
2019-02-10T03:26:42.086Z,93455.94
2019-02-10T03:27:04.867Z,93453.55
2019-02-10T03:27:27.706Z,93450.84
2019-02-10T03:27:50.641Z,93454.20
2019-02-10T03:28:13.515Z,93450.98
2019-02-10T03:28:36.267Z,93455.14
2019-02-10T03:28:59.214Z,93448.81
2019-02-10T03:29:21.953Z,93449.58
2019-02-10T03:29:44.747Z,93452.02
2019-02-10T03:30:07.759Z,93449.06
2019-02-10T03:30:30.669Z,93449.41
2019-02-10T03:30:53.650Z,93448.27
2019-02-10T03:31:16.364Z,93449.17
2019-02-10T03:31:39.113Z,93448.00
2019-02-10T03:32:01.932Z,93445.95
2019-02-10T03:32:24.808Z,93453.52
2019-02-10T03:32:47.654Z,93447.72
2019-02-10T03:33:10.882Z,93445.09
2019-02-10T03:33:33.709Z,93449.41
2019-02-10T03:33:56.568Z,93451.63
2019-02-10T03:34:19.314Z,93451.41
2019-02-10T03:34:42.147Z,93443.36
2019-02-10T03:35:05.129Z,93442.25
2019-02-10T03:35:27.967Z,93439.68
2019-02-10T03:35:50.946Z,93434.44
2019-02-10T03:36:13.759Z,93442.58
2019-02-10T03:36:36.525Z,93435.79
2019-02-10T03:36:59.326Z,93434.48
2019-02-10T03:37:27.252Z,93435.17
2019-02-10T03:37:46.626Z,93433.73
2019-02-10T03:38:09.458Z,93427.41
2019-02-10T03:38:32.205Z,93431.25
2019-02-10T03:38:54.965Z,93432.09
2019-02-10T03:39:17.815Z,93427.14
2019-02-10T03:39:40.626Z,93425.44
2019-02-10T03:40:03.400Z,93424.05
2019-02-10T03:40:26.405Z,93426.16
2019-02-10T03:40:49.385Z,93425.77
2019-02-10T03:41:12.380Z,93424.45
2019-02-10T03:41:35.145Z,93424.05
2019-02-10T03:41:58.484Z,93424.41
2019-02-10T03:42:21.325Z,93423.39
2019-02-10T03:42:44.085Z,93419.69
2019-02-10T03:43:07.345Z,93422.41
2019-02-10T03:43:30.093Z,93425.59
2019-02-10T03:43:52.967Z,93420.58
2019-02-10T03:44:15.806Z,93419.04
2019-02-10T03:44:38.733Z,93418.09
2019-02-10T03:45:01.528Z,93416.92
2019-02-10T03:45:24.465Z,93418.86
2019-02-10T03:45:47.307Z,93415.67
2019-02-10T03:46:11.128Z,93416.70
2019-02-10T03:46:33.992Z,93411.00
2019-02-10T03:46:56.729Z,93412.37
2019-02-10T03:47:21.911Z,93411.58
2019-02-10T03:47:44.067Z,93406.80
2019-02-10T03:48:07.431Z,93406.95
2019-02-10T03:48:30.269Z,93407.55
2019-02-10T03:48:53.027Z,93404.73
2019-02-10T03:49:15.935Z,93402.86
2019-02-10T03:49:38.626Z,93405.20
2019-02-10T03:50:01.437Z,93402.58
2019-02-10T03:50:24.247Z,93406.44
2019-02-10T03:50:47.127Z,93411.30
2019-02-10T03:51:09.927Z,93408.09
2019-02-10T03:51:33.256Z,93404.86
2019-02-10T03:51:56.086Z,93405.15
2019-02-10T03:52:18.943Z,93407.36
2019-02-10T03:52:49.985Z,93412.78
2019-02-10T03:53:12.695Z,93413.16
2019-02-10T03:53:36.889Z,93408.23
2019-02-10T03:54:04.951Z,93407.64
2019-02-10T03:54:27.729Z,93408.23
2019-02-10T03:54:51.713Z,93412.11
2019-02-10T03:55:14.651Z,93412.11
2019-02-10T03:55:44.558Z,93410.57
2019-02-10T03:56:12.727Z,93413.65
2019-02-10T03:56:37.488Z,93413.81
2019-02-10T03:57:03.772Z,93415.86
2019-02-10T03:57:38.886Z,93408.52
2019-02-10T03:58:06.822Z,93417.27
2019-02-10T03:58:31.813Z,93416.25
2019-02-10T03:58:57.807Z,93413.39
2019-02-10T03:59:31.068Z,93411.57
2019-02-10T03:59:57.417Z,93415.22
2019-02-10T04:35:19.304Z,93417.30
2019-02-10T04:35:42.266Z,93412.35
2019-02-10T04:36:05.103Z,93412.58
2019-02-10T04:36:27.946Z,93411.33
2019-02-10T04:36:50.884Z,93406.26
2019-02-10T04:37:13.986Z,93414.22
2019-02-10T04:37:44.951Z,93415.59
2019-02-10T04:38:01.317Z,93407.28
2019-02-10T04:38:24.302Z,93409.16
2019-02-10T04:38:47.205Z,93407.86
2019-02-10T04:39:10.345Z,93400.12
2019-02-10T04:39:33.226Z,93408.11
2019-02-10T04:39:56.144Z,93406.52
2019-02-10T04:40:19.027Z,93407.09
2019-02-10T04:40:41.985Z,93405.55
2019-02-10T04:41:08.563Z,93405.90
2019-02-10T04:41:31.653Z,93402.54
2019-02-10T04:41:54.626Z,93403.70
2019-02-10T04:42:19.064Z,93402.96
2019-02-10T04:42:43.945Z,93408.03
2019-02-10T04:43:06.807Z,93400.69
2019-02-10T04:43:29.766Z,93402.96
2019-02-10T04:43:52.693Z,93395.63
2019-02-10T04:44:15.547Z,93398.89
2019-02-10T04:44:39.324Z,93394.68
2019-02-10T04:45:02.156Z,93395.94
2019-02-10T04:45:24.985Z,93393.55
2019-02-10T04:45:48.245Z,93393.27
2019-02-10T04:46:11.064Z,93396.45
2019-02-10T04:46:33.965Z,93394.05
2019-02-10T04:46:58.023Z,93398.04
2019-02-10T04:47:21.004Z,93388.42
2019-02-10T04:47:43.805Z,93386.97
2019-02-10T04:48:06.606Z,93390.61
2019-02-10T04:48:29.445Z,93392.29
2019-02-10T04:48:52.266Z,93395.59
2019-02-10T04:49:15.025Z,93383.19
2019-02-10T04:49:38.226Z,93390.08
2019-02-10T04:50:01.065Z,93395.77
2019-02-10T04:50:23.866Z,93386.03
2019-02-10T04:50:46.764Z,93392.41
2019-02-10T04:51:12.106Z,93387.34
2019-02-10T04:51:35.024Z,93387.63
2019-02-10T04:51:58.044Z,93387.37
2019-02-10T04:52:23.604Z,93384.02
2019-02-10T04:52:46.384Z,93392.15
2019-02-10T04:53:09.383Z,93387.48
2019-02-10T04:53:32.525Z,93382.93
2019-02-10T04:53:55.506Z,93383.33
2019-02-10T04:54:18.433Z,93381.59
2019-02-10T04:54:42.484Z,93377.95
2019-02-10T04:55:06.391Z,93382.09
2019-02-10T04:55:29.193Z,93380.80
2019-02-10T04:55:54.473Z,93375.10
2019-02-10T04:56:17.204Z,93382.25
2019-02-10T04:56:40.084Z,93381.56
2019-02-10T04:57:14.144Z,93378.78
2019-02-10T04:57:38.186Z,93373.83
2019-02-10T04:58:02.784Z,93379.77
2019-02-10T04:58:25.708Z,93375.39
2019-02-10T04:58:48.465Z,93374.65
2019-02-10T04:59:11.343Z,93369.30
2019-02-10T04:59:34.204Z,93380.86
2019-02-10T04:59:57.052Z,93375.11
2019-02-10T05:00:19.912Z,93373.91
2019-02-10T05:00:43.006Z,93371.01
2019-02-10T05:01:09.984Z,93373.17
2019-02-10T05:01:32.825Z,93370.09
2019-02-10T05:01:55.608Z,93374.39
2019-02-10T05:02:23.404Z,93375.19
2019-02-10T05:02:47.246Z,93372.11
2019-02-10T05:03:13.066Z,93370.17
2019-02-10T05:03:38.805Z,93377.86
2019-02-10T05:04:06.133Z,93377.23
2019-02-10T05:04:50.024Z,93369.70
2019-02-10T05:05:19.485Z,93373.00
2019-02-10T05:05:43.206Z,93367.00
2019-02-10T05:06:11.043Z,93370.95
2019-02-10T05:06:39.751Z,93372.13
2019-02-10T05:07:05.547Z,93372.71
2019-02-10T05:07:33.468Z,93373.91
2019-02-10T05:08:02.451Z,93367.67
2019-02-10T05:08:26.871Z,93367.38
2019-02-10T05:08:51.964Z,93370.73
2019-02-10T05:09:14.849Z,93374.38
2019-02-10T05:09:40.874Z,93372.21
2019-02-10T05:10:08.146Z,93364.99
2019-02-10T05:10:32.344Z,93363.11
2019-02-10T05:10:56.865Z,93364.77
2019-02-10T05:11:23.166Z,93362.89
2019-02-10T05:11:46.345Z,93357.14
2019-02-10T05:12:11.503Z,93359.87
2019-02-10T05:12:34.384Z,93361.30
2019-02-10T05:13:00.044Z,93360.78